createdAt,value
2018-10-11T00:00:00.744Z,37.10
2018-10-11T00:01:01.075Z,36.80
2018-10-11T00:02:00.716Z,36.40
2018-10-11T00:03:00.702Z,36.40
2018-10-11T00:04:00.688Z,36.50
2018-10-11T00:05:00.678Z,36.30
2018-10-11T00:06:00.673Z,35.40
2018-10-11T00:07:00.650Z,36.60
2018-10-11T00:08:00.656Z,36.80
2018-10-11T00:09:00.623Z,37.30
2018-10-11T00:10:00.817Z,37.20
2018-10-11T00:11:00.597Z,36.20
2018-10-11T00:12:00.586Z,35.80
2018-10-11T00:13:00.563Z,36.30
2018-10-11T00:14:00.553Z,36.90
2018-10-11T00:15:00.536Z,37.00
2018-10-11T00:16:00.524Z,35.80
2018-10-11T00:17:00.513Z,36.00
2018-10-11T00:18:00.532Z,36.40
2018-10-11T00:19:00.485Z,37.50
2018-10-11T00:20:00.551Z,36.90
2018-10-11T00:21:00.453Z,37.30
2018-10-11T00:22:00.443Z,37.80
2018-10-11T00:24:00.411Z,37.50
2018-10-11T00:25:00.396Z,37.20
2018-10-11T00:26:00.383Z,37.10
2018-10-11T00:27:00.975Z,36.80
2018-10-11T00:28:00.354Z,36.40
2018-10-11T00:29:00.341Z,37.10
2018-10-11T00:30:00.329Z,35.60
2018-10-11T00:31:00.312Z,34.70
2018-10-11T00:32:00.298Z,36.30
2018-10-11T00:33:00.283Z,36.40
2018-10-11T00:34:00.271Z,37.50
2018-10-11T00:35:00.260Z,36.40
2018-10-11T00:36:00.449Z,37.10
2018-10-11T00:37:00.241Z,36.70
2018-10-11T00:38:00.214Z,37.30
2018-10-11T00:39:00.201Z,36.70
2018-10-11T00:40:00.190Z,37.70
2018-10-11T00:41:00.174Z,36.60
2018-10-11T00:42:00.158Z,38.10
2018-10-11T00:43:00.143Z,37.70
2018-10-11T00:44:00.127Z,37.70
2018-10-11T00:45:00.125Z,37.40
2018-10-11T00:46:00.427Z,37.40
2018-10-11T00:47:00.086Z,37.00
2018-10-11T00:48:00.075Z,37.90
2018-10-11T00:49:00.057Z,39.00
2018-10-11T00:50:00.043Z,36.80
2018-10-11T00:51:00.029Z,39.00
2018-10-11T00:52:00.016Z,39.00
2018-10-11T00:53:00.002Z,37.80
2018-10-11T00:53:59.986Z,38.10
2018-10-11T00:54:59.973Z,38.10
2018-10-11T00:55:59.958Z,38.60
2018-10-11T00:56:59.944Z,37.30
2018-10-11T00:57:59.927Z,37.80
2018-10-11T00:58:59.912Z,38.60
2018-10-11T00:59:59.903Z,38.00
2018-10-11T01:00:59.884Z,38.30
2018-10-11T01:01:59.871Z,38.10
2018-10-11T01:02:59.856Z,37.20
2018-10-11T01:03:59.843Z,37.60
2018-10-11T01:04:59.834Z,39.30
2018-10-11T01:05:59.814Z,37.60
2018-10-11T01:07:00.012Z,38.10
2018-10-11T01:07:59.787Z,38.10
2018-10-11T01:08:59.773Z,38.60
2018-10-11T01:09:59.835Z,39.50
2018-10-11T01:10:59.742Z,39.40
2018-10-11T01:11:59.727Z,39.40
2018-10-11T01:12:59.717Z,38.00
2018-10-11T01:13:59.701Z,37.90
2018-10-11T01:14:59.683Z,39.20
2018-10-11T01:15:59.671Z,38.60
2018-10-11T01:16:59.659Z,39.10
2018-10-11T01:17:59.642Z,39.30
2018-10-11T01:18:59.664Z,40.10
2018-10-11T01:19:59.613Z,38.20
2018-10-11T01:20:59.598Z,38.80
2018-10-11T01:21:59.584Z,39.40
2018-10-11T01:22:59.569Z,40.90
2018-10-11T01:23:59.559Z,40.00
2018-10-11T01:24:59.540Z,40.20
2018-10-11T01:25:59.533Z,38.50
2018-10-11T01:26:59.511Z,38.20
2018-10-11T01:27:59.500Z,39.40
2018-10-11T01:28:59.484Z,39.50
2018-10-11T01:29:59.500Z,38.70
2018-10-11T01:30:59.454Z,39.40
2018-10-11T01:31:59.447Z,38.90
2018-10-11T01:32:59.425Z,41.10
2018-10-11T01:33:59.413Z,39.50
2018-10-11T01:34:59.397Z,39.00
2018-10-11T01:35:59.384Z,41.00
2018-10-11T01:36:59.368Z,39.00
2018-10-11T01:37:59.353Z,40.10
2018-10-11T01:38:59.342Z,39.70
2018-10-11T01:39:59.325Z,41.30
2018-10-11T01:40:59.310Z,39.20
2018-10-11T01:41:59.300Z,40.30
2018-10-11T01:42:59.291Z,40.60
2018-10-11T01:43:59.264Z,40.80
2018-10-11T01:44:59.252Z,41.60
2018-10-11T01:45:59.235Z,40.10
2018-10-11T01:46:59.223Z,39.60
2018-10-11T01:47:59.218Z,40.70
2018-10-11T01:48:59.192Z,39.90
2018-10-11T01:49:59.179Z,41.00
2018-10-11T01:50:59.175Z,42.90
2018-10-11T01:51:59.147Z,41.80
2018-10-11T01:52:59.132Z,41.40
2018-10-11T01:53:59.119Z,41.60
2018-10-11T01:54:59.106Z,41.40
2018-10-11T01:55:59.089Z,41.70
2018-10-11T01:56:59.074Z,41.80
2018-10-11T01:57:59.060Z,40.50
2018-10-11T01:58:59.053Z,41.40
2018-10-11T01:59:59.027Z,41.30
2018-10-11T02:00:59.017Z,42.80
2018-10-11T02:01:59.002Z,42.70
2018-10-11T02:02:58.984Z,42.20
2018-10-11T02:03:58.972Z,41.00
2018-10-11T02:04:58.961Z,41.40
2018-10-11T02:05:58.955Z,41.80
2018-10-11T02:06:58.923Z,41.40
2018-10-11T02:07:58.909Z,41.20
2018-10-11T02:08:58.898Z,41.10
2018-10-11T02:09:58.882Z,43.30
2018-10-11T02:10:58.865Z,42.50
2018-10-11T02:11:58.850Z,42.70
2018-10-11T02:12:58.835Z,42.20
2018-10-11T02:13:58.820Z,43.50
2018-10-11T02:14:58.805Z,42.30
2018-10-11T02:15:58.797Z,41.60
2018-10-11T02:16:58.775Z,42.00
2018-10-11T02:17:58.768Z,42.60
2018-10-11T02:18:58.745Z,42.20
2018-10-11T02:19:58.731Z,43.20
2018-10-11T02:20:58.717Z,41.30
2018-10-11T02:21:58.702Z,42.70
2018-10-11T02:22:58.685Z,43.10
2018-10-11T02:23:58.671Z,43.50
2018-10-11T02:24:58.659Z,43.00
2018-10-11T02:25:58.644Z,43.60
2018-10-11T02:26:58.626Z,43.00
2018-10-11T02:27:58.610Z,42.70
2018-10-11T02:28:58.596Z,42.30
2018-10-11T02:29:58.582Z,41.60
2018-10-11T02:30:58.566Z,42.70
2018-10-11T02:31:58.605Z,42.40
2018-10-11T02:32:58.537Z,41.60
2018-10-11T02:33:58.521Z,43.80
2018-10-11T02:34:58.510Z,41.90
2018-10-11T02:35:58.490Z,42.90
2018-10-11T02:36:58.476Z,42.80
2018-10-11T02:37:58.461Z,43.30
2018-10-11T02:38:58.447Z,42.60
2018-10-11T02:39:58.436Z,42.20
2018-10-11T02:40:58.418Z,43.30
2018-10-11T02:41:58.405Z,43.70
2018-10-11T02:42:58.389Z,43.30
2018-10-11T02:43:58.372Z,42.50
2018-10-11T02:44:58.358Z,43.30
2018-10-11T02:45:58.344Z,42.20
2018-10-11T02:46:58.326Z,42.50
2018-10-11T02:47:58.311Z,42.70
2018-10-11T02:48:58.305Z,41.30
2018-10-11T02:49:58.282Z,42.10
2018-10-11T02:50:58.270Z,43.30
2018-10-11T02:51:58.253Z,43.00
2018-10-11T02:52:58.238Z,42.60
2018-10-11T02:53:58.225Z,43.50
2018-10-11T02:54:58.208Z,43.20
2018-10-11T02:55:58.193Z,42.10
2018-10-11T02:56:58.179Z,44.10
2018-10-11T02:57:58.168Z,41.60
2018-10-11T02:58:58.148Z,45.20
2018-10-11T02:59:58.141Z,43.10
2018-10-11T03:00:58.120Z,43.20
2018-10-11T03:01:58.112Z,44.40
2018-10-11T03:02:58.088Z,43.50
2018-10-11T03:03:58.074Z,43.40
2018-10-11T03:04:58.057Z,41.70
2018-10-11T03:05:58.043Z,42.30
2018-10-11T03:06:58.034Z,42.00
2018-10-11T03:07:58.017Z,43.60
2018-10-11T03:08:57.998Z,43.00
2018-10-11T03:09:57.982Z,42.60
2018-10-11T03:10:57.972Z,41.90
2018-10-11T03:11:57.952Z,42.30
2018-10-11T03:12:57.938Z,43.00
2018-10-11T03:13:57.922Z,42.90
2018-10-11T03:14:57.907Z,42.00
2018-10-11T03:15:57.895Z,41.30
2018-10-11T03:16:57.879Z,42.60
2018-10-11T03:17:57.861Z,43.00
2018-10-11T03:18:57.847Z,42.30
2018-10-11T03:19:57.830Z,44.30
2018-10-11T03:20:57.816Z,42.50
2018-10-11T03:21:57.802Z,42.40
2018-10-11T03:22:57.785Z,42.50
2018-10-11T03:23:57.770Z,44.00
2018-10-11T03:24:57.757Z,42.60
2018-10-11T03:25:57.741Z,42.10
2018-10-11T03:26:57.723Z,41.30
2018-10-11T03:27:57.710Z,41.40
2018-10-11T03:28:57.695Z,42.50
2018-10-11T03:29:57.680Z,42.30
2018-10-11T03:30:57.665Z,39.50
2018-10-11T03:31:57.649Z,42.00
2018-10-11T03:32:57.635Z,42.40
2018-10-11T03:33:57.618Z,41.80
2018-10-11T03:34:57.608Z,42.90
2018-10-11T03:35:57.589Z,42.50
2018-10-11T03:36:57.575Z,43.60
2018-10-11T03:37:57.558Z,40.60
2018-10-11T03:38:57.542Z,40.70
2018-10-11T03:39:57.532Z,40.90
2018-10-11T03:40:57.514Z,41.10
2018-10-11T03:41:57.498Z,42.30
2018-10-11T03:42:57.481Z,40.40
2018-10-11T03:43:57.468Z,40.40
2018-10-11T03:44:57.460Z,41.40
2018-10-11T03:45:57.443Z,41.70
2018-10-11T03:46:57.421Z,42.20
2018-10-11T03:47:57.408Z,38.80
2018-10-11T03:48:57.390Z,39.10
2018-10-11T03:49:57.376Z,39.60
2018-10-11T03:50:57.358Z,40.80
2018-10-11T03:51:57.345Z,39.10
2018-10-11T03:52:57.349Z,39.20
2018-10-11T03:53:57.317Z,40.90
2018-10-11T03:54:57.298Z,40.00
2018-10-11T03:55:57.283Z,40.10
2018-10-11T03:56:57.271Z,40.60
2018-10-11T03:57:57.253Z,40.80
2018-10-11T03:58:57.237Z,41.40
2018-10-11T03:59:57.223Z,40.40
2018-10-11T04:00:57.208Z,40.90
2018-10-11T04:01:57.245Z,40.50
2018-10-11T04:02:57.179Z,39.60
2018-10-11T04:03:57.161Z,38.30
2018-10-11T04:04:57.158Z,38.70
2018-10-11T04:05:57.132Z,38.60
2018-10-11T04:06:57.114Z,39.20
2018-10-11T04:07:57.103Z,38.60
2018-10-11T04:08:57.093Z,38.90
2018-10-11T04:09:57.072Z,39.30
2018-10-11T04:10:57.055Z,39.10
2018-10-11T04:11:57.041Z,40.40
2018-10-11T04:12:57.027Z,40.00
2018-10-11T04:13:57.012Z,39.80
2018-10-11T04:14:57.001Z,38.80
2018-10-11T04:15:56.976Z,39.70
2018-10-11T04:16:56.963Z,38.90
2018-10-11T04:17:56.948Z,41.50
2018-10-11T04:18:56.933Z,39.60
2018-10-11T04:19:56.918Z,39.40
2018-10-11T04:20:56.905Z,40.60
2018-10-11T04:21:56.886Z,40.10
2018-10-11T04:22:56.869Z,39.40
2018-10-11T04:23:56.857Z,41.50
2018-10-11T04:24:56.846Z,39.70
2018-10-11T04:25:56.845Z,40.80
2018-10-11T04:26:56.809Z,39.70
2018-10-11T04:27:56.796Z,40.90
2018-10-11T04:28:56.778Z,40.80
2018-10-11T04:29:56.781Z,39.20
2018-10-11T04:30:56.748Z,40.60
2018-10-11T04:31:56.733Z,39.60
2018-10-11T04:32:56.717Z,39.80
2018-10-11T04:33:56.700Z,40.50
2018-10-11T04:34:56.695Z,40.00
2018-10-11T04:35:56.676Z,40.10
2018-10-11T04:36:56.652Z,39.10
2018-10-11T04:37:56.638Z,40.40
2018-10-11T04:38:56.624Z,41.00
2018-10-11T04:39:56.613Z,41.20
2018-10-11T04:40:56.594Z,40.60
2018-10-11T04:41:56.585Z,40.60
2018-10-11T04:42:56.640Z,40.30
2018-10-11T04:43:56.553Z,41.70
2018-10-11T04:44:56.536Z,40.80
2018-10-11T04:45:56.513Z,39.70
2018-10-11T04:46:56.498Z,40.70
2018-10-11T04:47:56.483Z,40.10
2018-10-11T04:48:56.466Z,39.80
2018-10-11T04:49:56.452Z,40.20
2018-10-11T04:50:56.435Z,39.60
2018-10-11T04:51:56.422Z,41.30
2018-10-11T04:52:56.410Z,40.80
2018-10-11T04:53:56.389Z,40.40
2018-10-11T04:54:56.374Z,41.40
2018-10-11T04:55:56.359Z,39.00
2018-10-11T04:56:56.343Z,39.60
2018-10-11T04:57:56.327Z,39.80
2018-10-11T04:58:56.311Z,38.50
2018-10-11T04:59:56.295Z,40.80
2018-10-11T05:00:56.279Z,40.80
2018-10-11T05:01:56.269Z,39.50
2018-10-11T05:02:56.248Z,39.40
2018-10-11T05:03:56.231Z,40.10
2018-10-11T05:04:56.218Z,38.70
2018-10-11T05:05:56.203Z,39.80
2018-10-11T05:06:56.186Z,38.20
2018-10-11T05:07:56.174Z,38.70
2018-10-11T05:08:56.156Z,39.40
2018-10-11T05:09:56.141Z,38.60
2018-10-11T05:10:56.229Z,38.70
2018-10-11T05:11:56.116Z,38.40
2018-10-11T05:12:56.092Z,39.20
2018-10-11T05:13:56.078Z,38.90
2018-10-11T05:14:56.060Z,38.50
2018-10-11T05:15:56.046Z,38.40
2018-10-11T05:16:56.038Z,38.90
2018-10-11T05:17:56.019Z,38.90
2018-10-11T05:18:55.999Z,38.70
2018-10-11T05:19:55.986Z,37.30
2018-10-11T05:20:55.967Z,38.40
2018-10-11T05:21:55.953Z,37.20
2018-10-11T05:22:55.937Z,38.00
2018-10-11T05:23:55.921Z,40.00
2018-10-11T05:24:55.904Z,39.60
2018-10-11T05:25:55.933Z,39.40
2018-10-11T05:26:55.872Z,39.50
2018-10-11T05:27:55.859Z,38.90
2018-10-11T05:28:55.845Z,39.40
2018-10-11T05:29:55.829Z,39.40
2018-10-11T05:30:55.811Z,38.10
2018-10-11T05:31:55.797Z,39.20
2018-10-11T05:32:55.789Z,39.60
2018-10-11T05:33:55.765Z,38.10
2018-10-11T05:34:55.749Z,38.90
2018-10-11T05:35:55.735Z,39.00
2018-10-11T05:36:55.724Z,40.60
2018-10-11T05:37:55.723Z,38.00
2018-10-11T05:38:55.691Z,39.60
2018-10-11T05:39:55.674Z,38.20
2018-10-11T05:40:55.655Z,39.70
2018-10-11T05:41:55.641Z,39.70
2018-10-11T05:42:55.628Z,40.50
2018-10-11T05:43:55.610Z,39.40
2018-10-11T05:44:55.594Z,41.10
2018-10-11T05:45:55.578Z,40.50
2018-10-11T05:46:55.562Z,40.70
2018-10-11T05:47:55.546Z,40.70
2018-10-11T05:48:55.531Z,41.40
2018-10-11T05:49:55.517Z,41.00
2018-10-11T05:50:55.508Z,41.40
2018-10-11T05:51:55.483Z,40.70
2018-10-11T05:52:55.474Z,41.00
2018-10-11T05:53:55.453Z,40.60
2018-10-11T05:54:55.435Z,39.50
2018-10-11T05:55:55.425Z,39.40
2018-10-11T05:56:55.405Z,41.00
2018-10-11T05:57:55.394Z,38.80
2018-10-11T05:58:55.378Z,39.80
2018-10-11T05:59:55.360Z,38.60
2018-10-11T06:00:55.349Z,39.40
2018-10-11T06:01:55.329Z,39.50
2018-10-11T06:02:55.319Z,38.80
2018-10-11T06:03:55.298Z,39.30
2018-10-11T06:04:55.283Z,38.90
2018-10-11T06:05:55.268Z,39.00
2018-10-11T06:06:55.253Z,38.80
2018-10-11T06:07:55.232Z,37.40
2018-10-11T06:08:55.226Z,40.10
2018-10-11T06:09:55.207Z,39.20
2018-10-11T06:10:55.185Z,39.50
2018-10-11T06:11:55.239Z,38.10
2018-10-11T06:12:55.160Z,36.60
2018-10-11T06:13:55.148Z,38.60
2018-10-11T06:14:55.127Z,39.50
2018-10-11T06:15:55.111Z,39.10
2018-10-11T06:16:55.095Z,41.20
2018-10-11T06:17:55.124Z,38.80
2018-10-11T06:18:55.063Z,38.20
2018-10-11T06:19:55.046Z,38.20
2018-10-11T06:20:55.031Z,39.50
2018-10-11T06:21:55.021Z,38.60
2018-10-11T06:22:55.003Z,38.30
2018-10-11T06:23:54.988Z,37.60
2018-10-11T06:24:54.986Z,36.30
2018-10-11T06:25:54.977Z,35.30
2018-10-11T06:26:54.946Z,35.60
2018-10-11T06:27:54.933Z,35.20
2018-10-11T06:28:54.919Z,35.30
2018-10-11T06:29:54.907Z,34.50
2018-10-11T06:30:54.893Z,34.60
2018-10-11T06:31:54.884Z,33.30
2018-10-11T06:32:54.870Z,33.70
2018-10-11T06:33:54.859Z,34.00
2018-10-11T06:34:54.844Z,34.10
2018-10-11T06:35:54.844Z,33.60
2018-10-11T06:36:54.831Z,33.20
2018-10-11T06:37:54.810Z,33.30
2018-10-11T06:38:54.804Z,32.20
2018-10-11T06:39:54.800Z,31.90
2018-10-11T06:40:54.786Z,32.60
2018-10-11T06:41:54.821Z,32.00
2018-10-11T06:42:54.760Z,32.30
2018-10-11T06:43:54.747Z,31.80
2018-10-11T06:44:54.738Z,33.00
2018-10-11T06:45:54.729Z,32.20
2018-10-11T06:46:54.719Z,30.80
2018-10-11T06:47:54.708Z,30.20
2018-10-11T06:48:54.701Z,30.50
2018-10-11T06:49:54.741Z,29.70
2018-10-11T06:50:54.685Z,28.20
2018-10-11T06:51:54.680Z,29.60
2018-10-11T06:52:54.668Z,30.10
2018-10-11T06:53:54.660Z,28.10
2018-10-11T06:54:54.660Z,29.80
2018-10-11T06:55:54.664Z,29.40
2018-10-11T06:56:54.641Z,29.10
2018-10-11T06:57:54.631Z,28.60
2018-10-11T06:58:54.632Z,29.20
2018-10-11T06:59:54.621Z,28.60
2018-10-11T07:00:54.644Z,28.30
2018-10-11T07:01:54.802Z,28.60
2018-10-11T07:02:54.599Z,29.60
2018-10-11T07:03:54.595Z,29.10
2018-10-11T07:04:54.589Z,28.40
2018-10-11T07:05:54.733Z,28.60
2018-10-11T07:06:54.581Z,29.30
2018-10-11T07:07:54.573Z,27.80
2018-10-11T07:08:54.577Z,27.80
2018-10-11T07:09:54.566Z,28.60
2018-10-11T07:10:54.561Z,28.90
2018-10-11T07:11:54.557Z,29.20
2018-10-11T07:12:54.552Z,28.80
2018-10-11T07:13:54.570Z,28.90
2018-10-11T07:14:54.544Z,28.20
2018-10-11T07:15:54.545Z,27.20
2018-10-11T07:16:54.539Z,28.40
2018-10-11T07:17:54.539Z,28.30
2018-10-11T07:18:54.548Z,27.80
2018-10-11T07:19:54.552Z,27.80
2018-10-11T07:20:54.528Z,36.30
2018-10-11T07:21:54.525Z,29.90
2018-10-11T07:22:54.522Z,28.10
2018-10-11T07:23:54.522Z,29.00
2018-10-11T07:24:54.519Z,32.00
2018-10-11T07:25:54.592Z,30.30
2018-10-11T07:26:54.519Z,29.50
2018-10-11T07:27:54.664Z,29.10
2018-10-11T07:28:54.527Z,29.00
2018-10-11T07:29:54.522Z,29.50
2018-10-11T07:30:54.515Z,28.40
2018-10-11T07:31:54.508Z,28.50
2018-10-11T07:32:54.510Z,29.30
2018-10-11T07:33:54.513Z,29.00
2018-10-11T07:34:54.588Z,28.20
2018-10-11T07:35:54.503Z,28.60
2018-10-11T07:36:54.507Z,26.70
2018-10-11T07:37:54.504Z,28.20
2018-10-11T07:38:54.507Z,27.00
2018-10-11T07:39:54.506Z,27.40
2018-10-11T07:40:54.554Z,28.50
2018-10-11T07:41:54.501Z,27.20
2018-10-11T07:42:54.510Z,27.90
2018-10-11T07:43:54.500Z,27.80
2018-10-11T07:44:54.498Z,27.70
2018-10-11T07:45:54.502Z,27.20
2018-10-11T07:46:54.543Z,26.90
2018-10-11T07:47:54.497Z,27.10
2018-10-11T07:48:54.498Z,26.30
2018-10-11T07:49:54.500Z,26.70
2018-10-11T07:50:54.497Z,25.90
2018-10-11T07:51:54.500Z,28.40
2018-10-11T07:52:54.538Z,32.40
2018-10-11T07:53:54.497Z,28.00
2018-10-11T07:54:54.497Z,27.40
2018-10-11T07:55:54.504Z,26.20
2018-10-11T07:56:54.497Z,25.80
2018-10-11T07:57:54.503Z,25.90
2018-10-11T07:58:54.503Z,25.90
2018-10-11T07:59:54.498Z,26.60
2018-10-11T08:00:54.505Z,24.70
2018-10-11T08:01:54.500Z,26.40
2018-10-11T08:02:54.501Z,26.90
2018-10-11T08:03:54.500Z,25.20
2018-10-11T08:04:54.505Z,25.10
2018-10-11T08:05:54.508Z,25.10
2018-10-11T08:06:54.513Z,25.30
2018-10-11T08:07:54.511Z,26.50
2018-10-11T08:08:54.552Z,25.20
2018-10-11T08:09:54.514Z,25.60
2018-10-11T08:10:54.796Z,24.50
2018-10-11T08:11:54.905Z,25.90
2018-10-11T08:12:54.528Z,24.70
2018-10-11T08:13:54.524Z,26.00
2018-10-11T08:14:54.523Z,25.40
2018-10-11T08:15:54.562Z,24.30
2018-10-11T08:16:54.723Z,24.60
2018-10-11T08:17:54.683Z,26.20
2018-10-11T08:18:54.660Z,24.80
2018-10-11T08:19:54.562Z,24.50
2018-10-11T08:20:54.545Z,24.20
2018-10-11T08:21:54.540Z,24.80
2018-10-11T08:22:54.539Z,24.40
2018-10-11T08:23:54.545Z,23.40
2018-10-11T08:24:54.694Z,25.10
2018-10-11T08:25:55.027Z,23.70
2018-10-11T08:26:54.643Z,24.20
2018-10-11T08:27:54.559Z,25.30
2018-10-11T08:28:54.558Z,24.70
2018-10-11T08:29:54.562Z,23.30
2018-10-11T08:30:54.563Z,23.90
2018-10-11T08:31:54.565Z,23.50
2018-10-11T08:32:54.592Z,23.40
2018-10-11T08:33:54.568Z,22.60
2018-10-11T08:34:54.574Z,22.20
2018-10-11T08:35:54.573Z,23.20
2018-10-11T08:36:54.576Z,23.00
2018-10-11T08:37:54.782Z,23.50
2018-10-11T08:38:54.581Z,22.20
2018-10-11T08:39:54.584Z,23.20
2018-10-11T08:40:54.584Z,31.20
2018-10-11T08:41:54.588Z,26.20
2018-10-11T08:42:54.591Z,23.00
2018-10-11T08:43:54.667Z,22.20
2018-10-11T08:44:54.608Z,21.70
2018-10-11T08:45:54.609Z,22.00
2018-10-11T08:46:54.601Z,22.40
2018-10-11T08:47:54.611Z,22.80
2018-10-11T08:48:54.607Z,22.50
2018-10-11T08:49:54.612Z,22.30
2018-10-11T08:50:54.664Z,21.80
2018-10-11T08:51:54.617Z,24.60
2018-10-11T08:52:54.613Z,23.30
2018-10-11T08:53:54.620Z,23.10
2018-10-11T08:54:54.613Z,22.50
2018-10-11T08:55:54.635Z,21.50
2018-10-11T08:56:54.620Z,23.70
2018-10-11T08:57:54.619Z,23.30
2018-10-11T08:58:54.619Z,23.30
2018-10-11T08:59:54.620Z,22.20
2018-10-11T09:00:54.623Z,22.20
2018-10-11T09:01:54.625Z,22.00
2018-10-11T09:02:54.632Z,22.40
2018-10-11T09:03:54.813Z,20.60
2018-10-11T09:04:54.629Z,21.20
2018-10-11T09:05:54.635Z,21.50
2018-10-11T09:06:54.633Z,21.00
2018-10-11T09:07:54.630Z,21.50
2018-10-11T09:08:54.636Z,21.60
2018-10-11T09:09:54.638Z,21.20
2018-10-11T09:10:54.658Z,21.10
2018-10-11T09:11:54.636Z,20.80
2018-10-11T09:12:54.648Z,20.90
2018-10-11T09:13:54.637Z,20.90
2018-10-11T09:14:54.642Z,20.00
2018-10-11T09:15:54.638Z,20.30
2018-10-11T09:16:54.650Z,19.60
2018-10-11T09:17:54.641Z,21.70
2018-10-11T09:18:54.640Z,20.90
2018-10-11T09:19:54.642Z,20.10
2018-10-11T09:20:54.645Z,19.60
2018-10-11T09:21:54.646Z,20.60
2018-10-11T09:22:54.646Z,21.10
2018-10-11T09:23:54.649Z,19.00
2018-10-11T09:24:54.653Z,19.50
2018-10-11T09:25:54.649Z,20.60
2018-10-11T09:26:54.667Z,19.50
2018-10-11T09:27:54.650Z,20.00
2018-10-11T09:28:54.655Z,19.50
2018-10-11T09:29:54.649Z,20.30
2018-10-11T09:30:54.648Z,19.50
2018-10-11T09:31:54.651Z,19.20
2018-10-11T09:32:54.658Z,19.40
2018-10-11T09:33:54.648Z,18.50
2018-10-11T09:34:54.650Z,18.60
2018-10-11T09:35:54.648Z,18.90
2018-10-11T09:36:54.647Z,18.20
2018-10-11T09:37:54.646Z,19.40
2018-10-11T09:38:54.646Z,18.60
2018-10-11T09:39:54.649Z,19.30
2018-10-11T09:40:54.649Z,21.20
2018-10-11T09:41:54.643Z,21.20
2018-10-11T09:42:54.704Z,20.20
2018-10-11T09:43:54.643Z,19.00
2018-10-11T09:44:54.656Z,19.00
2018-10-11T09:45:54.651Z,20.10
2018-10-11T09:46:54.643Z,19.90
2018-10-11T09:47:54.642Z,19.50
2018-10-11T09:48:54.760Z,19.50
2018-10-11T09:49:54.647Z,18.90
2018-10-11T09:50:54.639Z,19.80
2018-10-11T09:51:54.646Z,18.50
2018-10-11T09:52:54.646Z,18.90
2018-10-11T09:53:54.639Z,19.30
2018-10-11T09:54:54.691Z,18.80
2018-10-11T09:55:54.637Z,18.30
2018-10-11T09:56:54.634Z,18.90
2018-10-11T09:57:54.632Z,18.90
2018-10-11T09:58:54.634Z,18.50
2018-10-11T09:59:54.629Z,18.60
2018-10-11T10:00:54.630Z,19.30
2018-10-11T10:01:54.673Z,18.60
2018-10-11T10:02:54.625Z,19.20
2018-10-11T10:03:54.631Z,17.60
2018-10-11T10:04:54.619Z,19.60
2018-10-11T10:05:54.621Z,17.10
2018-10-11T10:06:54.621Z,19.10
2018-10-11T10:07:54.619Z,18.10
2018-10-11T10:08:54.611Z,18.60
2018-10-11T10:09:54.684Z,18.30
2018-10-11T10:10:54.611Z,19.90
2018-10-11T10:11:54.609Z,18.60
2018-10-11T10:12:54.612Z,18.30
2018-10-11T10:13:54.600Z,17.70
2018-10-11T10:14:54.600Z,18.60
2018-10-11T10:15:54.599Z,18.10
2018-10-11T10:16:54.598Z,18.50
2018-10-11T10:17:54.595Z,18.50
2018-10-11T10:18:54.594Z,19.00
2018-10-11T10:19:54.591Z,17.10
2018-10-11T10:20:54.590Z,17.80
2018-10-11T10:21:54.588Z,18.60
2018-10-11T10:22:54.586Z,16.90
2018-10-11T10:23:54.581Z,16.80
2018-10-11T10:24:54.607Z,17.50
2018-10-11T10:25:54.580Z,17.40
2018-10-11T10:26:54.625Z,18.60
2018-10-11T10:27:54.575Z,17.70
2018-10-11T10:28:54.567Z,17.60
2018-10-11T10:29:54.568Z,16.90
2018-10-11T10:30:54.559Z,16.30
2018-10-11T10:31:54.568Z,17.30
2018-10-11T10:32:54.556Z,16.40
2018-10-11T10:33:54.578Z,19.20
2018-10-11T10:34:54.553Z,17.60
2018-10-11T10:35:54.549Z,17.00
2018-10-11T10:36:54.555Z,17.10
2018-10-11T10:37:54.547Z,16.10
2018-10-11T10:38:54.546Z,16.40
2018-10-11T10:39:54.618Z,17.50
2018-10-11T10:40:54.537Z,16.70
2018-10-11T10:41:54.543Z,16.70
2018-10-11T10:42:54.532Z,16.30
2018-10-11T10:43:54.530Z,15.90
2018-10-11T10:44:54.525Z,16.20
2018-10-11T10:45:54.524Z,16.10
2018-10-11T10:46:54.527Z,16.00
2018-10-11T10:47:54.519Z,15.40
2018-10-11T10:48:54.584Z,16.40
2018-10-11T10:49:54.515Z,14.30
2018-10-11T10:50:54.508Z,14.80
2018-10-11T10:51:54.518Z,15.40
2018-10-11T10:52:54.507Z,15.30
2018-10-11T10:53:54.505Z,15.00
2018-10-11T10:54:54.507Z,15.00
2018-10-11T10:55:54.508Z,14.50
2018-10-11T10:56:54.495Z,13.80
2018-10-11T10:57:54.496Z,14.20
2018-10-11T10:58:54.490Z,14.40
2018-10-11T10:59:54.489Z,14.30
2018-10-11T11:00:54.492Z,14.70
2018-10-11T11:01:54.483Z,15.70
2018-10-11T11:02:54.484Z,13.70
2018-10-11T11:03:54.473Z,13.60
2018-10-11T11:04:54.473Z,13.30
2018-10-11T11:05:54.467Z,14.10
2018-10-11T11:06:54.466Z,14.10
2018-10-11T11:07:54.471Z,14.20
2018-10-11T11:08:54.463Z,14.30
2018-10-11T11:09:54.456Z,14.10
2018-10-11T11:10:54.451Z,13.60
2018-10-11T11:11:54.448Z,14.10
2018-10-11T11:12:54.449Z,13.10
2018-10-11T11:13:54.444Z,12.40
2018-10-11T11:14:54.440Z,12.80
2018-10-11T11:15:54.436Z,12.30
2018-10-11T11:16:54.429Z,11.40
2018-10-11T11:17:54.432Z,13.00
2018-10-11T11:18:54.462Z,11.10
2018-10-11T11:19:54.422Z,11.70
2018-10-11T11:20:54.426Z,12.40
2018-10-11T11:21:54.418Z,12.80
2018-10-11T11:22:54.412Z,12.00
2018-10-11T11:23:54.412Z,11.30
2018-10-11T11:24:54.407Z,11.40
2018-10-11T11:25:54.403Z,11.80
2018-10-11T11:26:54.399Z,11.10
2018-10-11T11:27:54.544Z,10.90
2018-10-11T11:28:54.390Z,11.80
2018-10-11T11:29:54.386Z,12.50
2018-10-11T11:30:54.418Z,13.20
2018-10-11T11:31:54.384Z,12.50
2018-10-11T11:32:54.377Z,12.20
2018-10-11T11:33:54.375Z,13.50
2018-10-11T11:34:54.371Z,11.80
2018-10-11T11:35:54.365Z,11.60
2018-10-11T11:36:54.366Z,12.00
2018-10-11T11:37:54.363Z,12.00
2018-10-11T11:38:54.352Z,11.70
2018-10-11T11:39:54.373Z,11.20
2018-10-11T11:40:54.349Z,11.30
2018-10-11T11:41:54.349Z,11.10
2018-10-11T11:42:54.341Z,11.60
2018-10-11T11:43:54.340Z,10.90
2018-10-11T11:44:54.332Z,10.50
2018-10-11T11:45:54.414Z,10.40
2018-10-11T11:46:54.326Z,10.60
2018-10-11T11:47:54.324Z,10.00
2018-10-11T11:48:54.320Z,9.30
2018-10-11T11:49:54.314Z,10.50
2018-10-11T11:50:54.312Z,10.50
2018-10-11T11:51:54.315Z,10.80
2018-10-11T11:52:54.301Z,10.90
2018-10-11T11:53:54.295Z,10.80
2018-10-11T11:54:54.291Z,9.90
2018-10-11T11:55:54.288Z,11.20
2018-10-11T11:56:54.285Z,10.70
2018-10-11T11:57:54.356Z,10.20
2018-10-11T11:58:54.275Z,11.20
2018-10-11T11:59:54.492Z,10.30
2018-10-11T12:00:54.269Z,10.00
2018-10-11T12:01:54.265Z,10.00
2018-10-11T12:02:54.259Z,10.20
2018-10-11T12:03:54.257Z,10.60
2018-10-11T12:04:54.293Z,9.90
2018-10-11T12:05:54.251Z,10.60
2018-10-11T12:06:54.243Z,10.20
2018-10-11T12:07:54.242Z,10.40
2018-10-11T12:08:54.241Z,10.40
2018-10-11T12:09:54.563Z,11.10
2018-10-11T12:10:54.291Z,9.90
2018-10-11T12:11:54.223Z,9.80
2018-10-11T12:12:54.219Z,9.90
2018-10-11T12:13:54.216Z,10.20
2018-10-11T12:14:54.211Z,9.70
2018-10-11T12:15:54.209Z,9.90
2018-10-11T12:16:54.204Z,9.20
2018-10-11T12:17:54.199Z,9.60
2018-10-11T12:18:54.195Z,8.80
2018-10-11T12:19:54.523Z,9.20
2018-10-11T12:20:54.190Z,9.80
2018-10-11T12:21:54.209Z,10.00
2018-10-11T12:22:54.177Z,9.00
2018-10-11T12:23:54.173Z,9.40
2018-10-11T12:24:54.242Z,9.90
2018-10-11T12:25:54.167Z,9.30
2018-10-11T12:26:54.164Z,9.20
2018-10-11T12:27:54.159Z,9.60
2018-10-11T12:28:54.228Z,9.20
2018-10-11T12:29:54.169Z,9.80
2018-10-11T12:30:54.142Z,9.20
2018-10-11T12:31:54.150Z,9.10
2018-10-11T12:32:54.137Z,9.30
2018-10-11T12:33:54.130Z,8.60
2018-10-11T12:34:54.125Z,8.50
2018-10-11T12:35:54.124Z,8.30
2018-10-11T12:36:54.119Z,9.10
2018-10-11T12:37:54.118Z,8.30
2018-10-11T12:38:54.535Z,8.70
2018-10-11T12:39:54.106Z,8.20
2018-10-11T12:40:54.101Z,9.00
2018-10-11T12:41:54.099Z,8.10
2018-10-11T12:42:54.092Z,8.00
2018-10-11T12:43:54.104Z,7.70
2018-10-11T12:44:54.109Z,7.50
2018-10-11T12:45:54.082Z,7.10
2018-10-11T12:46:54.077Z,7.70
2018-10-11T12:47:54.073Z,7.90
2018-10-11T12:48:54.070Z,8.00
2018-10-11T12:49:54.128Z,6.90
2018-10-11T12:50:54.064Z,7.70
2018-10-11T12:51:54.096Z,7.30
2018-10-11T12:52:54.053Z,8.30
2018-10-11T12:53:54.056Z,8.50
2018-10-11T12:54:54.078Z,7.80